createdAt,value
2023-04-27T00:00:39.674Z,100405.66
2023-04-27T00:03:42.522Z,100411.31
2023-04-27T00:06:44.973Z,100404.84
2023-04-27T00:09:47.456Z,100412.91
2023-04-27T00:12:49.601Z,100400.81
2023-04-27T00:15:52.300Z,100411.81
2023-04-27T00:18:55.770Z,100412.06
2023-04-27T00:22:00.005Z,100415.56
2023-04-27T00:25:02.205Z,100411.03
2023-04-27T00:28:04.758Z,100415.03
2023-04-27T00:31:07.021Z,100411.03
2023-04-27T00:34:09.460Z,100416.09
2023-04-27T00:37:11.618Z,100407.53
2023-04-27T00:40:14.547Z,100408.91
2023-04-27T00:43:16.680Z,100404.34
2023-04-27T00:46:19.780Z,100402.97
2023-04-27T00:49:23.275Z,100399.50
2023-04-27T00:52:25.962Z,100400.84
2023-04-27T00:55:28.277Z,100399.53
2023-04-27T00:58:30.794Z,100398.97
2023-04-27T01:01:34.195Z,100400.06
2023-04-27T01:04:38.446Z,100393.63
2023-04-27T01:07:41.096Z,100397.91
2023-04-27T01:10:43.711Z,100400.06
2023-04-27T01:13:46.248Z,100400.84
2023-04-27T01:16:48.766Z,100395.25
2023-04-27T01:19:51.716Z,100403.56
2023-04-27T01:22:54.184Z,100399.53
2023-04-27T01:25:56.624Z,100403.28
2023-04-27T01:28:59.639Z,100403.28
2023-04-27T01:32:02.408Z,100400.63
2023-04-27T01:35:06.112Z,100406.75
2023-04-27T01:38:08.396Z,100409.44
2023-04-27T01:41:10.855Z,100417.19
2023-04-27T01:44:12.985Z,100413.44
2023-04-27T01:47:17.257Z,100415.31
2023-04-27T01:50:19.932Z,100414.53
2023-04-27T01:53:22.330Z,100414.25
2023-04-27T01:56:24.606Z,100421.75
2023-04-27T01:59:27.996Z,100424.16
2023-04-27T02:02:30.279Z,100424.44
2023-04-27T02:05:32.821Z,100430.06
2023-04-27T02:08:35.095Z,100425.75
2023-04-27T02:11:37.562Z,100425.22
2023-04-27T02:14:39.758Z,100422.81
2023-04-27T02:17:43.982Z,100432.47
2023-04-27T02:20:48.079Z,100424.94
2023-04-27T02:23:50.545Z,100436.44
2023-04-27T02:26:53.102Z,100427.88
2023-04-27T02:29:55.778Z,100433.75
2023-04-27T02:33:00.786Z,100441.78
2023-04-27T02:36:03.612Z,100445.28
2023-04-27T02:39:05.769Z,100444.19
2023-04-27T02:42:08.235Z,100450.56
2023-04-27T02:45:11.459Z,100448.41
2023-04-27T02:48:13.879Z,100451.06
2023-04-27T02:51:16.105Z,100455.34
2023-04-27T02:54:18.495Z,100457.50
2023-04-27T02:57:20.658Z,100458.53
2023-04-27T03:00:23.101Z,100457.97
2023-04-27T03:03:25.790Z,100468.41
2023-04-27T03:06:28.926Z,100470.00
2023-04-27T03:09:31.138Z,100473.47
2023-04-27T03:12:33.595Z,100475.59
2023-04-27T03:15:35.853Z,100470.50
2023-04-27T03:18:39.115Z,100475.81
2023-04-27T03:21:41.453Z,100483.53
2023-04-27T03:24:44.517Z,100479.00
2023-04-27T03:27:46.630Z,100490.19
2023-04-27T03:30:49.057Z,100482.69
2023-04-27T03:33:51.448Z,100482.97
2023-04-27T03:36:54.078Z,100479.44
2023-04-27T03:39:56.216Z,100488.78
2023-04-27T03:42:59.241Z,100493.38
2023-04-27T03:46:01.712Z,100488.84
2023-04-27T03:49:04.307Z,100490.12
2023-04-27T03:52:06.899Z,100497.13
2023-04-27T03:55:10.664Z,100498.72
2023-04-27T03:58:14.530Z,100505.94
2023-04-27T04:01:18.910Z,100500.28
2023-04-27T04:04:22.262Z,100502.16
2023-04-27T04:07:24.622Z,100503.56
2023-04-27T04:10:27.161Z,100504.38
2023-04-27T04:13:29.807Z,100511.91
2023-04-27T04:16:33.611Z,100519.59
2023-04-27T04:19:35.780Z,100526.03
2023-04-27T04:22:38.716Z,100524.44
2023-04-27T04:25:41.670Z,100528.97
2023-04-27T04:28:44.266Z,100521.75
2023-04-27T04:31:46.566Z,100525.78
2023-04-27T04:34:51.206Z,100529.81
2023-04-27T04:37:55.263Z,100533.81
2023-04-27T04:40:57.697Z,100535.22
2023-04-27T04:44:00.622Z,100541.69
2023-04-27T04:47:03.497Z,100540.31
2023-04-27T04:50:06.885Z,100543.88
2023-04-27T04:53:10.622Z,100542.84
2023-04-27T04:56:14.308Z,100543.91
2023-04-27T04:59:17.558Z,100543.13
2023-04-27T05:02:19.781Z,100546.09
2023-04-27T05:05:22.186Z,100551.97
2023-04-27T05:08:24.325Z,100547.44
2023-04-27T05:11:26.840Z,100552.81
2023-04-27T05:14:29.363Z,100551.78
2023-04-27T05:17:32.107Z,100549.37
2023-04-27T05:20:38.210Z,100560.38
2023-04-27T05:23:40.685Z,100559.59
2023-04-27T05:26:43.552Z,100564.16
2023-04-27T05:29:46.259Z,100570.34
2023-04-27T05:32:48.451Z,100573.59
2023-04-27T05:35:50.947Z,100576.53
2023-04-27T05:38:53.057Z,100573.63
2023-04-27T05:41:56.742Z,100575.81
2023-04-27T05:44:58.893Z,100577.44
2023-04-27T05:48:01.714Z,100580.13
2023-04-27T05:51:04.524Z,100579.59
2023-04-27T05:54:08.336Z,100581.22
2023-04-27T05:57:10.754Z,100584.97
2023-04-27T06:00:15.129Z,100597.03
2023-04-27T06:03:17.939Z,100588.16
2023-04-27T06:06:20.206Z,100595.12
2023-04-27T06:09:22.701Z,100593.66
2023-04-27T06:12:24.872Z,100591.66
2023-04-27T06:15:27.362Z,100592.84
2023-04-27T06:18:29.836Z,100595.94
2023-04-27T06:21:33.657Z,100595.16
2023-04-27T06:24:36.516Z,100601.91
2023-04-27T06:27:39.028Z,100596.59
2023-04-27T06:30:41.213Z,100602.28
2023-04-27T06:33:43.863Z,100602.59
2023-04-27T06:36:46.425Z,100612.09
2023-04-27T06:39:49.094Z,100612.47
2023-04-27T06:42:51.418Z,100609.25
2023-04-27T06:45:53.904Z,100613.69
2023-04-27T06:48:56.071Z,100610.03
2023-04-27T06:51:58.517Z,100612.84
2023-04-27T06:55:00.742Z,100606.06
2023-04-27T06:58:03.562Z,100613.34
2023-04-27T07:01:06.015Z,100613.66
2023-04-27T07:04:08.591Z,100618.84
2023-04-27T07:07:10.915Z,100616.44
2023-04-27T07:10:13.462Z,100626.06
2023-04-27T07:13:16.057Z,100619.47
2023-04-27T07:16:19.014Z,100614.72
2023-04-27T07:19:21.225Z,100621.09
2023-04-27T07:22:23.685Z,100618.41
2023-04-27T07:25:25.858Z,100619.84
2023-04-27T07:28:29.108Z,100617.78
2023-04-27T07:31:31.815Z,100627.78
2023-04-27T07:34:49.000Z,100625.75
2023-04-27T07:37:56.619Z,100627.44
2023-04-27T07:41:01.764Z,100628.50
2023-04-27T07:44:03.982Z,100628.09
2023-04-27T07:47:06.610Z,100630.31
2023-04-27T07:50:09.397Z,100628.25
2023-04-27T07:53:12.044Z,100619.66
2023-04-27T07:56:14.200Z,100612.31
2023-04-27T07:59:17.081Z,100613.13
2023-04-27T08:02:20.359Z,100613.81
2023-04-27T08:05:23.871Z,100607.59
2023-04-27T08:08:26.693Z,100613.69
2023-04-27T08:11:29.537Z,100617.00
2023-04-27T08:14:34.507Z,100620.75
2023-04-27T08:17:38.908Z,100620.16
2023-04-27T08:20:41.144Z,100622.97
2023-04-27T08:23:43.879Z,100619.81
2023-04-27T08:26:46.028Z,100620.22
2023-04-27T08:29:49.232Z,100618.25
2023-04-27T08:32:51.477Z,100619.50
2023-04-27T08:35:54.980Z,100617.91
2023-04-27T08:38:57.141Z,100614.94
2023-04-27T08:41:59.715Z,100611.84
2023-04-27T08:45:01.996Z,100616.69
2023-04-27T08:48:04.769Z,100622.94
2023-04-27T08:51:11.195Z,100620.69
2023-04-27T08:54:13.653Z,100626.03
2023-04-27T08:57:16.557Z,100621.41
2023-04-27T09:00:20.280Z,100618.72
2023-04-27T09:03:24.636Z,100615.22
2023-04-27T09:06:31.643Z,100618.28
2023-04-27T09:09:34.057Z,100615.56
2023-04-27T09:12:36.646Z,100616.22
2023-04-27T09:15:48.595Z,100611.44
2023-04-27T09:18:51.438Z,100611.38
2023-04-27T09:22:07.376Z,100607.81
2023-04-27T09:25:09.848Z,100608.94
2023-04-27T09:28:14.590Z,100603.53
2023-04-27T09:31:18.120Z,100608.31
2023-04-27T09:34:20.657Z,100600.75
2023-04-27T09:37:23.177Z,100599.03
2023-04-27T09:40:31.526Z,100593.50
2023-04-27T09:43:34.979Z,100586.53
2023-04-27T09:46:37.474Z,100583.72
2023-04-27T09:49:40.427Z,100581.19
2023-04-27T09:52:43.258Z,100588.56
2023-04-27T09:55:55.173Z,100578.38
2023-04-27T09:59:37.424Z,100581.16
2023-04-27T10:03:05.303Z,100574.69
2023-04-27T10:06:30.544Z,100578.53
2023-04-27T10:18:28.002Z,100571.44
2023-04-27T10:21:32.896Z,100560.72
2023-04-27T10:24:40.980Z,100561.22
2023-04-27T10:27:43.983Z,100563.47
2023-04-27T10:30:49.359Z,100559.03
2023-04-27T10:33:52.946Z,100563.53
2023-04-27T10:37:06.057Z,100561.56
2023-04-27T10:40:10.817Z,100556.63
2023-04-27T10:43:17.655Z,100551.44
2023-04-27T10:46:20.904Z,100563.31
2023-04-27T10:49:23.784Z,100560.94
2023-04-27T10:52:26.770Z,100559.53
2023-04-27T10:55:30.796Z,100562.37
2023-04-27T10:58:47.519Z,100552.84
2023-04-27T11:01:51.519Z,100557.81
2023-04-27T11:04:54.596Z,100559.09
2023-04-27T11:08:07.731Z,100561.41
2023-04-27T11:11:18.047Z,100559.84
2023-04-27T11:14:21.508Z,100555.59
2023-04-27T11:17:32.323Z,100550.31
2023-04-27T11:20:35.061Z,100557.00
2023-04-27T11:23:40.690Z,100548.75
2023-04-27T11:26:42.953Z,100549.00
2023-04-27T11:29:45.783Z,100545.81
2023-04-27T11:32:48.714Z,100548.84
2023-04-27T11:35:51.507Z,100554.78
2023-04-27T11:38:57.909Z,100543.53
2023-04-27T11:42:22.372Z,100547.66
2023-04-27T11:45:28.266Z,100540.47
2023-04-27T11:48:30.968Z,100542.91
2023-04-27T11:51:33.580Z,100542.09
2023-04-27T11:54:37.773Z,100546.94
2023-04-27T11:57:40.614Z,100543.22
2023-04-27T12:00:43.980Z,100550.56
2023-04-27T12:03:46.603Z,100550.13
2023-04-27T12:06:49.085Z,100544.78
2023-04-27T12:09:54.009Z,100544.66
2023-04-27T12:12:56.942Z,100541.31
2023-04-27T12:16:02.897Z,100546.28
2023-04-27T12:19:08.308Z,100542.63
2023-04-27T12:22:11.197Z,100540.16
2023-04-27T12:25:13.905Z,100545.31
2023-04-27T12:28:19.136Z,100535.22
2023-04-27T12:31:24.701Z,100536.97
2023-04-27T12:34:28.725Z,100542.09
2023-04-27T12:37:30.889Z,100529.47
2023-04-27T12:40:33.681Z,100525.69
2023-04-27T12:43:37.433Z,100529.16
2023-04-27T12:46:41.599Z,100527.94
2023-04-27T12:49:45.001Z,100532.84
2023-04-27T12:52:48.064Z,100528.59
2023-04-27T12:55:50.332Z,100530.84
2023-04-27T12:58:53.046Z,100534.69
2023-04-27T13:01:55.753Z,100534.44
2023-04-27T13:04:58.597Z,100534.31
2023-04-27T13:08:00.888Z,100533.47
2023-04-27T13:11:04.146Z,100529.69
2023-04-27T13:14:06.414Z,100521.97
2023-04-27T13:17:08.993Z,100529.31
2023-04-27T13:20:11.799Z,100521.69
2023-04-27T13:23:14.558Z,100518.59
2023-04-27T13:26:17.050Z,100528.97
2023-04-27T13:29:19.562Z,100528.91
2023-04-27T13:32:22.264Z,100527.38
2023-04-27T13:35:25.005Z,100518.06
2023-04-27T13:38:28.952Z,100531.28
2023-04-27T13:41:31.468Z,100536.06
2023-04-27T13:44:33.728Z,100533.22
2023-04-27T13:47:39.167Z,100538.63
2023-04-27T13:50:41.370Z,100531.75
2023-04-27T13:53:44.091Z,100527.00
2023-04-27T13:56:46.307Z,100519.91
2023-04-27T13:59:48.793Z,100520.75
2023-04-27T14:02:51.148Z,100529.41
2023-04-27T14:05:53.747Z,100528.25
2023-04-27T14:08:56.280Z,100525.97
2023-04-27T14:11:59.162Z,100534.22
2023-04-27T14:15:01.364Z,100531.25
2023-04-27T14:18:08.009Z,100534.28
2023-04-27T14:21:10.460Z,100530.56
2023-04-27T14:24:13.265Z,100538.56
2023-04-27T14:27:17.009Z,100545.03
2023-04-27T14:30:19.596Z,100542.19
2023-04-27T14:33:21.899Z,100548.00
2023-04-27T14:36:24.426Z,100546.47
2023-04-27T14:39:28.121Z,100540.62
2023-04-27T14:42:31.727Z,100543.69
2023-04-27T14:45:47.785Z,100540.88
2023-04-27T14:48:53.926Z,100548.41
2023-04-27T14:51:56.288Z,100547.25
2023-04-27T14:54:59.415Z,100546.34
2023-04-27T14:58:01.630Z,100549.81
2023-04-27T15:01:04.194Z,100550.03
2023-04-27T15:04:11.080Z,100549.50
2023-04-27T15:07:13.790Z,100551.53
2023-04-27T15:10:16.210Z,100555.63
2023-04-27T15:13:18.784Z,100549.97
2023-04-27T15:16:21.178Z,100550.47
2023-04-27T15:19:23.736Z,100555.31
2023-04-27T15:22:27.776Z,100548.78
2023-04-27T15:25:30.433Z,100555.56
2023-04-27T15:28:33.761Z,100550.38
2023-04-27T15:31:38.374Z,100536.56
2023-04-27T15:34:44.430Z,100542.06
2023-04-27T15:37:46.941Z,100538.47
2023-04-27T15:40:49.208Z,100544.41
2023-04-27T15:43:52.300Z,100546.53
2023-04-27T15:46:54.740Z,100535.91
2023-04-27T15:49:58.374Z,100552.28
2023-04-27T15:53:00.677Z,100550.25
2023-04-27T15:56:03.340Z,100549.19
2023-04-27T15:59:06.735Z,100552.75
2023-04-27T16:02:09.354Z,100541.59
2023-04-27T16:05:11.882Z,100545.81
2023-04-27T16:08:14.066Z,100542.63
2023-04-27T16:11:17.103Z,100546.00
2023-04-27T16:14:19.358Z,100540.69
2023-04-27T16:17:21.849Z,100553.97
2023-04-27T16:20:25.443Z,100555.22
2023-04-27T16:23:28.138Z,100553.44
2023-04-27T16:26:30.428Z,100558.81
2023-04-27T16:29:32.909Z,100557.00
2023-04-27T16:32:35.930Z,100558.47
2023-04-27T16:35:38.477Z,100554.81
2023-04-27T16:38:41.924Z,100563.63
2023-04-27T16:41:44.474Z,100557.41
2023-04-27T16:44:47.335Z,100566.66
2023-04-27T16:47:49.867Z,100567.50
2023-04-27T16:50:53.677Z,100567.16
2023-04-27T16:53:58.260Z,100560.62
2023-04-27T16:57:00.477Z,100561.00
2023-04-27T17:00:05.762Z,100566.66
2023-04-27T17:03:08.167Z,100571.63
2023-04-27T17:06:11.526Z,100581.09
2023-04-27T17:09:15.030Z,100581.72
2023-04-27T17:12:17.741Z,100578.03
2023-04-27T17:15:20.499Z,100581.44
2023-04-27T17:18:22.916Z,100584.03
2023-04-27T17:21:26.872Z,100588.97
2023-04-27T17:24:29.570Z,100593.47
2023-04-27T17:27:31.757Z,100582.78
2023-04-27T17:30:34.234Z,100588.06
2023-04-27T17:33:36.481Z,100595.22
2023-04-27T17:36:38.927Z,100595.72
2023-04-27T17:39:41.378Z,100598.56
2023-04-27T17:42:43.820Z,100594.88
2023-04-27T17:45:46.255Z,100597.75
2023-04-27T17:48:48.815Z,100602.06
2023-04-27T17:51:50.974Z,100601.72
2023-04-27T17:54:53.452Z,100611.25
2023-04-27T17:57:55.637Z,100605.78
2023-04-27T18:00:58.209Z,100614.38
2023-04-27T18:04:04.009Z,100617.38
2023-04-27T18:07:06.942Z,100612.00
2023-04-27T18:10:09.572Z,100612.91
2023-04-27T18:13:11.864Z,100623.78
2023-04-27T18:16:14.381Z,100627.84
2023-04-27T18:19:17.021Z,100625.62
2023-04-27T18:22:19.803Z,100630.63
2023-04-27T18:25:22.069Z,100635.84
2023-04-27T18:28:24.558Z,100632.69
2023-04-27T18:31:26.907Z,100633.41
2023-04-27T18:34:29.342Z,100641.63
2023-04-27T18:37:31.553Z,100644.53
2023-04-27T18:40:36.055Z,100646.94
2023-04-27T18:43:38.241Z,100657.19
2023-04-27T18:46:40.797Z,100645.28
2023-04-27T18:49:43.021Z,100654.28
2023-04-27T18:52:46.067Z,100661.09
2023-04-27T18:55:48.265Z,100660.72
2023-04-27T18:58:51.127Z,100659.78
2023-04-27T19:01:54.011Z,100671.31
2023-04-27T19:05:10.995Z,100666.22
2023-04-27T19:08:14.964Z,100678.78
2023-04-27T19:11:21.999Z,100672.97
2023-04-27T19:14:24.897Z,100680.66
2023-04-27T19:17:27.478Z,100673.44
2023-04-27T19:20:29.803Z,100676.12
2023-04-27T19:23:32.344Z,100678.03
2023-04-27T19:26:34.613Z,100682.44
2023-04-27T19:29:52.188Z,100681.72
2023-04-27T19:32:54.353Z,100684.13
2023-04-27T19:35:58.504Z,100683.25
2023-04-27T19:39:01.067Z,100688.34
2023-04-27T19:42:03.580Z,100683.12
2023-04-27T19:45:06.959Z,100684.47
2023-04-27T19:48:09.820Z,100686.84
2023-04-27T19:51:12.073Z,100679.19
2023-04-27T19:54:14.707Z,100683.38
2023-04-27T19:57:17.308Z,100688.69
2023-04-27T20:00:19.918Z,100693.63
2023-04-27T20:03:22.567Z,100694.66
2023-04-27T20:06:25.090Z,100692.25
2023-04-27T20:09:27.586Z,100690.47
2023-04-27T20:12:47.932Z,100691.91
2023-04-27T20:15:52.369Z,100695.69
2023-04-27T20:18:55.442Z,100700.50
2023-04-27T20:21:57.921Z,100685.13
2023-04-27T20:25:00.218Z,100695.50
2023-04-27T20:28:02.663Z,100689.09
2023-04-27T20:31:04.896Z,100700.97
2023-04-27T20:34:07.315Z,100699.66
2023-04-27T20:37:09.693Z,100697.59
2023-04-27T20:40:14.430Z,100701.94
2023-04-27T20:43:18.415Z,100701.19
2023-04-27T20:46:21.079Z,100705.22
2023-04-27T20:49:32.074Z,100702.59
2023-04-27T20:52:37.868Z,100693.50
2023-04-27T20:55:40.142Z,100700.50
2023-04-27T20:58:42.539Z,100696.22
2023-04-27T21:01:44.746Z,100705.59
2023-04-27T21:04:47.377Z,100704.97
2023-04-27T21:07:49.672Z,100706.91
2023-04-27T21:10:52.307Z,100707.44
2023-04-27T21:13:54.495Z,100717.75
2023-04-27T21:16:57.163Z,100712.69
2023-04-27T21:19:59.452Z,100714.87
2023-04-27T21:23:01.910Z,100710.66
2023-04-27T21:26:04.162Z,100719.22
2023-04-27T21:29:08.211Z,100720.31
2023-04-27T21:32:10.474Z,100730.59
2023-04-27T21:35:12.922Z,100728.47
2023-04-27T21:38:15.096Z,100724.69
2023-04-27T21:41:17.607Z,100734.91
2023-04-27T21:44:19.757Z,100728.47
2023-04-27T21:47:22.693Z,100729.84
2023-04-27T21:50:24.940Z,100731.78
2023-04-27T21:53:27.453Z,100730.19
2023-04-27T21:56:29.685Z,100729.94
2023-04-27T21:59:32.722Z,100734.50
2023-04-27T22:02:35.025Z,100737.22
2023-04-27T22:05:37.522Z,100740.47
2023-04-27T22:08:39.827Z,100746.19
2023-04-27T22:11:42.309Z,100739.22
2023-04-27T22:14:46.825Z,100740.53
2023-04-27T22:17:51.203Z,100742.66
2023-04-27T22:20:58.152Z,100744.28
2023-04-27T22:24:00.791Z,100747.00
2023-04-27T22:27:03.928Z,100743.78
2023-04-27T22:30:07.160Z,100755.31
2023-04-27T22:33:09.920Z,100760.44
2023-04-27T22:36:12.453Z,100751.59
2023-04-27T22:39:14.632Z,100750.53
2023-04-27T22:42:17.039Z,100754.81
2023-04-27T22:45:19.231Z,100753.47
2023-04-27T22:48:21.741Z,100756.44
2023-04-27T22:51:27.233Z,100765.84
2023-04-27T22:54:29.683Z,100756.72
2023-04-27T22:57:31.817Z,100754.03
2023-04-27T23:00:34.225Z,100772.00
2023-04-27T23:03:36.480Z,100766.91
2023-04-27T23:06:38.999Z,100767.19
2023-04-27T23:09:42.646Z,100760.44
2023-04-27T23:12:45.066Z,100766.88
2023-04-27T23:15:48.020Z,100766.59
2023-04-27T23:18:50.806Z,100769.00
2023-04-27T23:21:52.925Z,100767.41
2023-04-27T23:24:55.453Z,100763.66
2023-04-27T23:27:57.606Z,100763.63
2023-04-27T23:31:00.171Z,100757.75
2023-04-27T23:34:02.548Z,100764.19
2023-04-27T23:37:05.011Z,100767.41
2023-04-27T23:40:08.511Z,100772.50
2023-04-27T23:43:11.772Z,100762.56
2023-04-27T23:46:13.927Z,100767.38
2023-04-27T23:49:16.406Z,100765.25
2023-04-27T23:52:18.649Z,100765.25
2023-04-27T23:55:21.233Z,100767.91
2023-04-27T23:58:24.790Z,100763.88
